Apex, NC (27502)

1:07 PM EDT on August 30, 2015 (GMT -0400)
Surrey Meadows | | Change Station
CLOSE
Current Station
Personal Weather Station
Location: APEX, NC
Elevation: 476 ft
Nearby Weather Stations

Elev 476 ft 35.73 °N, 78.83 °W | Updated 2 minutes ago

Mostly Cloudy
Mostly Cloudy
85.1 °F
Feels Like 87 °F
N
0.0
Wind Variable Wind from SSE

Today
High -- | Low -- °F
--% Chance of Precip.
Yesterday
High -- | Low -- °F
Precip. -- in
6:45 AM 7:45 PM
Full, 99% visible
Pressure 30.15 in
Visibility 10.0 miles
Clouds Few 6000 ft
Mostly Cloudy 20000 ft
Heat Index 87 °F
Dew Point 64 °F
Humidity 50%
Rainfall 0.00 in
Snow Depth Not available.
UV 5 out of 12
Pollen 7.80 out of 12
Air Quality Not available.
Flu Activity Not available.
METAR KRDU 301651Z 00000KT 10SM FEW060 BKN200 29/16 A3016 RMK AO2 SLP209 T02940156
Pressure 30.15 in
Visibility 10.0 miles
Clouds Few 6000 ft
Mostly Cloudy 20000 ft
Heat Index 87 °F
Dew Point 64 °F
Humidity 50%
Rainfall 0.00 in
Snow Depth Not available.
UV 5 out of 12
Pollen 7.80 out of 12
Air Quality Not available.
Flu Activity Not available.
METAR KRDU 301651Z 00000KT 10SM FEW060 BKN200 29/16 A3016 RMK AO2 SLP209 T02940156

10-Day Weather Forecast

×

Almanac

Astronomy

Aug. 30, 2015 Rise Set
Actual Time
Civil Twilight
Nautical Twilight
Astronomical Twilight
Moon
Length of Visible Light
Length of Day
Tomorrow will be .
, % of the Moon is Illuminated

Today's Extremes

State Highs State Lows

Community

WunderPhotos

Upload Photos

1,851,008 photos uploaded!

WunderBlogs® & News

Nearby

Air Quality

  Air Quality AQ Index Pollutant
Not available.

Snow Depth

Station Depth Elevation

Earthquake Activity

City Distance Mag. Time & Date
Minimum magnitude displayed is 2.5.

Coastal Water Temperatures

Place Temperature

Stations

Nearby Weather Stations

Station Location Temp. Windchill Dew Point Humidity Wind Precip. Elev Updated Type